Time;durP1;ratioP1;P1;durP2;ratioP2;P2;SDS_P1;SDS_P2;PMS_P1;PMS_P2;Temp;Humidity;BMP_temperature;BMP_pressure;BME280_temperature;BME280_humidity;BME280_pressure;Samples;Min_cycle;Max_cycle;Signal;HPM_P1;HPM_P2
2022/05/01 00:00:07;;;;;;;;;;;;;;;21.37;38.61;95985.13;10400430;28;1808;-46
2022/05/01 00:05:07;;;;;;;;;;;;;;;21.38;38.69;95984.06;10394347;28;1927;-44
2022/05/01 00:10:12;;;;;;;;;;;;;;;21.37;38.55;95972.72;10403585;28;1850;-42
2022/05/01 00:15:13;;;;;;;;;;;;;;;21.37;38.68;95974.56;10399726;28;1736;-42
2022/05/01 00:20:15;;;;;;;;;;;;;;;21.38;38.60;95970.88;10389081;28;1808;-46
2022/05/01 00:25:15;;;;;;;;;;;;;;;21.37;38.60;95977.22;10373457;28;1977;-44
2022/05/01 00:30:16;;;;;;;;;;;;;;;21.35;38.49;95976.69;10380524;28;1890;-43
2022/05/01 00:40:35;;;;;;;;;;;;;;;21.35;37.81;95976.69;10375774;28;1934;-48
2022/05/01 00:45:35;;;;;;;;;;;;;;;21.37;38.02;95977.22;10373997;28;1946;-44
2022/05/01 00:50:35;;;;;;;;;;;;;;;21.37;38.01;95977.97;10383054;28;1773;-44
2022/05/01 00:55:36;;;;;;;;;;;;;;;21.37;37.03;95979.84;10365577;28;1759;-43
2022/05/01 01:00:36;;;;;;;;;;;;;;;21.39;37.40;95967.19;10384469;28;1797;-44
2022/05/01 01:05:36;;;;;;;;;;;;;;;21.38;37.90;95970.88;10362579;28;1906;-44
2022/05/01 01:10:38;;;;;;;;;;;;;;;21.41;37.79;95975.59;10371616;28;1824;-43
2022/05/01 01:15:38;;;;;;;;;;;;;;;21.42;37.97;95966.63;10365635;28;1818;-42
2022/05/01 01:20:40;;;;;;;;;;;;;;;21.42;38.16;95971.91;10375118;28;1848;-47
2022/05/01 01:25:41;;;;;;;;;;;;;;;21.43;37.93;95968.22;10392025;28;1898;-48
2022/05/01 01:36:03;;;;;;;;;;;;;;;21.41;38.02;95965.06;10366891;28;1790;-44
2022/05/01 01:41:04;;;;;;;;;;;;;;;21.41;38.17;95950.00;10390786;28;1859;-43
2022/05/01 01:46:04;;;;;;;;;;;;;;;21.37;37.83;95964.78;10369934;28;1922;-43
2022/05/01 01:51:06;;;;;;;;;;;;;;;21.37;37.42;95956.88;10353371;28;1827;-44
2022/05/01 01:56:09;;;;;;;;;;;;;;;21.38;37.53;95960.31;10368816;28;1835;-46
2022/05/01 02:01:10;;;;;;;;;;;;;;;21.37;37.77;95961.41;10393319;28;1836;-45
2022/05/01 02:06:11;;;;;;;;;;;;;;;21.38;37.61;95957.69;10382771;28;1910;-46
2022/05/01 02:11:12;;;;;;;;;;;;;;;21.39;37.31;95967.19;10386826;28;1820;-46
2022/05/01 02:16:12;;;;;;;;;;;;;;;21.41;37.05;95960.56;10380980;28;1697;-45
2022/05/01 02:26:32;;;;;;;;;;;;;;;21.41;36.45;95951.88;10388808;28;1973;-45
2022/05/01 02:31:33;;;;;;;;;;;;;;;21.42;36.94;95956.88;10395201;28;1983;-46
2022/05/01 02:36:33;;;;;;;;;;;;;;;21.41;36.72;95952.63;10397750;28;2046;-46
2022/05/01 02:41:34;;;;;;;;;;;;;;;21.41;36.50;95946.59;10379779;28;1884;-48
2022/05/01 02:46:34;;;;;;;;;;;;;;;21.42;36.54;95951.59;10385240;28;2120;-44
2022/05/01 02:51:36;;;;;;;;;;;;;;;21.43;36.56;95947.88;10385603;28;1950;-46
2022/05/01 02:56:37;;;;;;;;;;;;;;;21.43;37.00;95937.31;10377974;28;1951;-43
2022/05/01 03:01:37;;;;;;;;;;;;;;;21.47;37.14;95942.88;10398669;28;1941;-44
2022/05/01 03:06:38;;;;;;;;;;;;;;;21.47;37.40;95940.22;10400705;28;1981;-46
2022/05/01 03:11:38;;;;;;;;;;;;;;;21.47;37.94;95937.59;10396926;28;1911;-43
2022/05/01 03:16:39;;;;;;;;;;;;;;;21.45;37.80;95935.22;10387752;28;2005;-42
2022/05/01 03:26:58;;;;;;;;;;;;;;;21.42;37.58;95929.69;10391755;28;1970;-45
2022/05/01 03:31:59;;;;;;;;;;;;;;;21.42;37.54;95932.34;10381131;28;1966;-44
2022/05/01 03:36:59;;;;;;;;;;;;;;;21.41;37.55;95934.19;10380274;28;1908;-44
2022/05/01 03:42:00;;;;;;;;;;;;;;;21.42;37.56;95929.69;10381687;28;1933;-46
2022/05/01 03:47:00;;;;;;;;;;;;;;;21.42;37.77;95927.84;10404868;28;1981;-43
2022/05/01 03:52:00;;;;;;;;;;;;;;;21.42;37.49;95927.06;10388304;28;2036;-44
2022/05/01 03:57:02;;;;;;;;;;;;;;;21.42;37.00;95929.69;10402646;28;2002;-44
2022/05/01 04:02:02;;;;;;;;;;;;;;;21.41;37.11;95931.53;10395870;28;1923;-45
2022/05/01 04:07:03;;;;;;;;;;;;;;;21.42;36.68;95934.97;10397129;28;1976;-44
2022/05/01 04:12:04;;;;;;;;;;;;;;;21.43;36.44;95934.69;10398870;28;1899;-44
2022/05/01 04:17:05;;;;;;;;;;;;;;;21.43;36.70;95932.06;10396753;28;1928;-43
2022/05/01 04:22:06;;;;;;;;;;;;;;;21.44;36.68;95936.28;10386945;28;1999;-41
2022/05/01 04:27:06;;;;;;;;;;;;;;;21.44;37.25;95935.50;10394345;28;1981;-47
2022/05/01 04:32:09;;;;;;;;;;;;;;;21.47;37.48;95934.94;10390098;28;1931;-43
2022/05/01 04:37:09;;;;;;;;;;;;;;;21.45;37.62;95939.72;10383087;28;1924;-45
2022/05/01 04:42:09;;;;;;;;;;;;;;;21.46;37.51;95949.19;10378762;28;2028;-41
2022/05/01 04:47:10;;;;;;;;;;;;;;;21.46;37.62;95946.56;10383608;28;1969;-43
2022/05/01 04:52:11;;;;;;;;;;;;;;;21.45;37.86;95952.91;10391124;28;1985;-42
2022/05/01 04:57:14;;;;;;;;;;;;;;;21.45;37.61;95945.00;10400161;28;1966;-43
2022/05/01 05:02:16;;;;;;;;;;;;;;;21.42;37.72;95945.53;10398299;28;1978;-44
2022/05/01 05:07:16;;;;;;;;;;;;;;;21.42;37.37;95950.78;10378812;28;1989;-43
2022/05/01 05:12:16;;;;;;;;;;;;;;;21.39;37.68;95956.63;10379476;28;2308;-44
2022/05/01 05:17:18;;;;;;;;;;;;;;;21.41;37.21;95954.50;10389301;28;1902;-45
2022/05/01 05:22:19;;;;;;;;;;;;;;;21.41;37.50;95957.16;10384716;28;1893;-46
2022/05/01 05:27:25;;;;;;;;;;;;;;;21.41;37.45;95957.91;10396433;28;2045;-43
2022/05/01 05:32:26;;;;;;;;;;;;;;;21.42;37.27;95964.78;10378209;28;1998;-43
2022/05/01 05:37:26;;;;;;;;;;;;;;;21.39;37.26;95962.66;10379483;28;1900;-44
2022/05/01 05:42:26;;;;;;;;;;;;;;;21.39;37.08;95969.81;10390679;28;1951;-42
2022/05/01 05:47:27;;;;;;;;;;;;;;;21.41;37.03;95976.38;10390972;28;2015;-45
2022/05/01 05:52:27;;;;;;;;;;;;;;;21.42;36.82;95971.91;10401551;28;1928;-43
2022/05/01 05:57:27;;;;;;;;;;;;;;;21.42;36.97;95969.25;10365533;28;1885;-46
2022/05/01 06:02:28;;;;;;;;;;;;;;;21.42;37.75;95975.31;10400806;28;2095;-45
2022/05/01 06:07:28;;;;;;;;;;;;;;;21.43;37.22;95976.13;10383406;28;1916;-46
2022/05/01 06:12:29;;;;;;;;;;;;;;;21.43;37.54;95984.03;10393730;28;1996;-48
2022/05/01 06:17:29;;;;;;;;;;;;;;;21.42;37.52;95993.00;10375428;28;1946;-44
2022/05/01 06:22:30;;;;;;;;;;;;;;;21.43;37.35;95984.03;10386027;28;1923;-43
2022/05/01 06:27:31;;;;;;;;;;;;;;;21.41;37.40;95991.44;10414885;28;2011;-46
2022/05/01 06:32:31;;;;;;;;;;;;;;;21.40;37.82;95985.34;10398418;28;1969;-43
2022/05/01 06:37:32;;;;;;;;;;;;;;;21.39;37.73;95988.28;10388907;28;1966;-44
2022/05/01 06:42:32;;;;;;;;;;;;;;;21.38;37.80;95994.59;10378100;28;1902;-47
2022/05/01 06:47:33;;;;;;;;;;;;;;;21.37;37.82;95993.81;10405623;28;1918;-43
2022/05/01 06:52:33;;;;;;;;;;;;;;;21.38;37.40;95997.25;10392713;28;1951;-43
2022/05/01 06:57:34;;;;;;;;;;;;;;;21.38;37.41;96002.50;10380149;28;1912;-45
2022/05/01 07:02:34;;;;;;;;;;;;;;;21.39;37.16;95996.94;10391817;28;1878;-44
2022/05/01 07:07:35;;;;;;;;;;;;;;;21.37;37.30;95993.81;10391947;28;1922;-45
2022/05/01 07:12:35;;;;;;;;;;;;;;;21.38;36.81;96005.94;10405683;28;1949;-42
2022/05/01 07:17:35;;;;;;;;;;;;;;;21.41;36.97;96002.75;10393597;28;1907;-42
2022/05/01 07:22:36;;;;;;;;;;;;;;;21.42;37.21;96012.25;10383865;28;1890;-44
2022/05/01 07:27:36;;;;;;;;;;;;;;;21.43;37.51;96016.44;10369799;28;1995;-42
2022/05/01 07:32:37;;;;;;;;;;;;;;;21.43;37.35;96008.53;10361910;28;1772;-44
2022/05/01 07:37:37;;;;;;;;;;;;;;;21.43;37.35;96010.41;10372487;28;1877;-43
2022/05/01 07:42:37;;;;;;;;;;;;;;;21.41;37.08;96017.81;10404066;28;1846;-44
2022/05/01 07:47:38;;;;;;;;;;;;;;;21.39;36.94;96012.78;10385996;28;1967;-48
2022/05/01 07:52:39;;;;;;;;;;;;;;;21.39;37.10;96010.13;10405801;28;1853;-46
2022/05/01 07:57:39;;;;;;;;;;;;;;;21.41;36.89;96015.16;10403991;28;1828;-46
2022/05/01 08:07:58;;;;;;;;;;;;;;;21.37;36.88;96016.78;10412483;28;1906;-45
2022/05/01 08:12:59;;;;;;;;;;;;;;;21.38;36.75;96018.34;10391323;28;1991;-45
2022/05/01 08:21:05;;;;;;;;;;;;;;;21.38;36.68;96018.34;10405318;28;1961;-51
2022/05/01 08:23:20;;;;;;;;;;;;;;;21.35;36.72;96017.03;10387803;28;1911;-46
2022/05/01 08:28:21;;;;;;;;;;;;;;;21.37;36.49;96016.78;10407131;28;2128;-45
2022/05/01 08:33:22;;;;;;;;;;;;;;;21.38;37.03;96018.34;10407452;28;1818;-48
2022/05/01 08:38:22;;;;;;;;;;;;;;;21.41;36.86;96023.84;10398657;28;1758;-47
2022/05/01 08:43:23;;;;;;;;;;;;;;;21.35;35.27;96016.25;10371615;28;1922;-49
2022/05/01 08:48:27;;;;;;;;;;;;;;;21.38;36.42;96018.34;10382480;28;1658;-46
2022/05/01 08:53:28;;;;;;;;;;;;;;;21.41;36.88;96025.72;10386458;28;1756;-49
2022/05/01 08:58:29;;;;;;;;;;;;;;;21.44;36.79;96022.50;10396325;28;1818;-49
2022/05/01 09:03:29;;;;;;;;;;;;;;;21.46;37.15;96020.41;10396940;28;1983;-50
2022/05/01 09:08:30;;;;;;;;;;;;;;;21.46;37.04;96020.41;10411353;28;1709;-44
2022/05/01 09:13:30;;;;;;;;;;;;;;;21.47;36.82;96016.72;10407986;28;1839;-46
2022/05/01 09:18:30;;;;;;;;;;;;;;;21.47;36.73;96011.44;10406989;28;1794;-48
2022/05/01 09:23:37;;;;;;;;;;;;;;;21.49;36.85;96014.59;10388127;28;1918;-46
2022/05/01 09:28:46;;;;;;;;;;;;;;;21.45;37.12;96018.84;10392221;28;1855;-46
2022/05/01 09:33:47;;;;;;;;;;;;;;;21.47;37.09;96014.06;10384092;28;1835;-43
2022/05/01 09:38:49;;;;;;;;;;;;;;;21.47;37.11;96014.06;10390722;28;1853;-44
2022/05/01 09:43:49;;;;;;;;;;;;;;;21.44;37.13;96022.50;10382136;28;1974;-45
2022/05/01 09:48:57;;;;;;;;;;;;;;;21.45;37.58;96024.09;10395433;28;1860;-45
2022/05/01 09:53:58;;;;;;;;;;;;;;;21.47;39.04;96017.50;10387956;28;1799;-48
2022/05/01 09:58:59;;;;;;;;;;;;;;;21.48;39.09;96011.16;10386479;28;1784;-49
2022/05/01 10:04:00;;;;;;;;;;;;;;;21.51;39.08;96009.84;10386139;28;1979;-45
2022/05/01 10:09:03;;;;;;;;;;;;;;;21.54;39.31;96006.63;10405615;28;1830;-43
2022/05/01 10:14:03;;;;;;;;;;;;;;;21.48;39.33;95997.16;10393099;28;1790;-46
2022/05/01 10:19:05;;;;;;;;;;;;;;;21.50;38.95;95989.78;10376755;28;1783;-45
2022/05/01 10:24:05;;;;;;;;;;;;;;;21.49;39.23;95988.22;10380983;28;1947;-44
2022/05/01 10:29:24;;;;;;;;;;;;;;;21.49;38.62;95982.94;10380062;28;1775;-44
2022/05/01 10:34:24;;;;;;;;;;;;;;;21.48;38.66;95990.06;10378392;28;1970;-44
2022/05/01 10:39:28;;;;;;;;;;;;;;;21.47;38.62;95985.84;10391208;28;1818;-44
2022/05/01 10:44:30;;;;;;;;;;;;;;;21.44;38.64;95980.31;10378507;28;1961;-43
2022/05/01 10:49:34;;;;;;;;;;;;;;;21.45;38.47;95976.63;10398249;28;1814;-48
2022/05/01 10:54:35;;;;;;;;;;;;;;;21.45;38.69;95976.63;10375859;28;1874;-47
2022/05/01 10:59:43;;;;;;;;;;;;;;;21.45;38.94;95966.09;10377951;28;1816;-44
2022/05/01 11:04:44;;;;;;;;;;;;;;;21.44;38.70;95961.84;10398465;28;1918;-44
2022/05/01 11:09:45;;;;;;;;;;;;;;;21.43;38.49;95955.78;10399082;28;1853;-46
2022/05/01 11:14:49;;;;;;;;;;;;;;;21.45;38.64;95951.03;10414355;28;1814;-51
2022/05/01 11:19:50;;;;;;;;;;;;;;;21.44;38.70;95948.69;10398332;28;1768;-46
2022/05/01 11:24:50;;;;;;;;;;;;;;;21.46;38.80;95954.47;10407654;28;1902;-44
2022/05/01 11:30:06;;;;;;;;;;;;;;;21.46;38.64;95942.06;10407726;28;1819;-47
2022/05/01 11:35:06;;;;;;;;;;;;;;;21.49;38.62;95951.28;10392999;28;1744;-43
2022/05/01 11:40:20;;;;;;;;;;;;;;;21.47;38.76;95942.88;10381631;28;1788;-45
2022/05/01 11:45:23;;;;;;;;;;;;;;;21.47;38.39;95935.75;10399885;28;1978;-42
2022/05/01 11:50:24;;;;;;;;;;;;;;;21.53;38.39;95934.66;10402705;28;1829;-45
2022/05/01 12:02:24;;;;;;;;;;;;;;;21.49;38.31;95930.97;10376715;28;1810;-43
2022/05/01 12:06:04;;;;;;;;;;;;;;;21.50;38.94;95921.19;10367669;28;1977;-49
2022/05/01 12:11:04;;;;;;;;;;;;;;;21.47;39.17;95927.03;10406860;28;1791;-45
2022/05/01 12:16:05;;;;;;;;;;;;;;;21.47;39.07;95927.03;10386699;28;1806;-44
2022/05/01 12:21:05;;;;;;;;;;;;;;;21.48;38.66;95924.13;10386089;28;1879;-46
2022/05/01 12:26:05;;;;;;;;;;;;;;;21.46;38.75;95920.97;10386075;28;1910;-46
2022/05/01 12:31:06;;;;;;;;;;;;;;;21.45;38.64;95915.97;10373010;28;1755;-46
2022/05/01 12:36:06;;;;;;;;;;;;;;;21.43;38.75;95912.81;10380214;28;1823;-43
2022/05/01 12:46:32;;;;;;;;;;;;;;;21.41;38.67;95904.41;10405867;28;1886;-47
2022/05/01 12:51:36;;;;;;;;;;;;;;;21.42;38.63;95898.06;10398932;28;1852;-45
2022/05/01 12:56:36;;;;;;;;;;;;;;;21.44;38.69;95907.28;10373683;28;1881;-44
2022/05/01 13:01:36;;;;;;;;;;;;;;;21.41;38.60;95897.25;10378446;28;1935;-43
2022/05/01 13:06:37;;;;;;;;;;;;;;;21.43;38.60;95899.66;10373162;28;1973;-46
2022/05/01 13:11:37;;;;;;;;;;;;;;;21.42;38.61;95892.78;10379161;28;1744;-42
2022/05/01 13:16:44;;;;;;;;;;;;;;;21.43;38.67;95889.84;10362750;28;1689;-46
2022/05/01 13:21:45;;;;;;;;;;;;;;;21.44;38.49;95888.03;10367754;28;1795;-46
2022/05/01 13:26:46;;;;;;;;;;;;;;;21.43;38.28;95879.31;10370088;28;1902;-44
2022/05/01 13:31:47;;;;;;;;;;;;;;;21.44;38.54;95885.38;10368951;28;1776;-50
2022/05/01 13:36:47;;;;;;;;;;;;;;;21.43;38.64;95883.81;10373683;28;1784;-48
2022/05/01 13:47:07;;;;;;;;;;;;;;;21.46;38.55;95880.63;10388484;28;1975;-45
2022/05/01 13:52:07;;;;;;;;;;;;;;;21.43;38.77;95871.41;10367992;28;1701;-47
2022/05/01 13:57:08;;;;;;;;;;;;;;;21.43;38.53;95868.75;10369479;28;1798;-42
2022/05/01 14:02:08;;;;;;;;;;;;;;;21.46;38.73;95870.06;10374118;28;1870;-46
2022/05/01 14:07:09;;;;;;;;;;;;;;;21.42;38.57;95864.56;10371650;28;1987;-44
2022/05/01 14:12:11;;;;;;;;;;;;;;;21.41;38.68;95860.34;10397331;28;1906;-46
2022/05/01 14:17:12;;;;;;;;;;;;;;;21.40;38.76;95858.00;10395172;28;1831;-45
2022/05/01 14:22:13;;;;;;;;;;;;;;;21.41;38.58;95860.34;10390728;28;2005;-45
2022/05/01 14:27:14;;;;;;;;;;;;;;;21.43;39.55;95858.22;10379691;28;2006;-46
2022/05/01 14:32:26;;;;;;;;;;;;;;;21.43;39.78;95852.94;10401126;28;1851;-49
2022/05/01 14:37:29;;;;;;;;;;;;;;;21.48;40.16;95845.00;10370653;28;1748;-45
2022/05/01 14:42:31;;;;;;;;;;;;;;;21.49;40.27;95846.59;10373179;28;1911;-44
2022/05/01 14:47:35;;;;;;;;;;;;;;;21.50;40.19;95836.81;10379919;28;1902;-43
2022/05/01 14:52:35;;;;;;;;;;;;;;;21.48;40.66;95842.38;10371745;28;1780;-45
2022/05/01 14:57:36;;;;;;;;;;;;;;;21.50;40.62;95836.81;10367989;28;1780;-43
2022/05/01 15:08:01;;;;;;;;;;;;;;;21.50;40.32;95837.59;10373525;28;1914;-45
2022/05/01 15:13:02;;;;;;;;;;;;;;;21.50;40.31;95837.59;10377568;28;1975;-47
2022/05/01 15:18:06;;;;;;;;;;;;;;;21.50;40.83;95828.88;10390811;28;1798;-43
2022/05/01 15:23:27;;;;;;;;;;;;;;;21.48;40.61;95836.28;10387864;28;2384;-47
2022/05/01 15:28:27;;;;;;;;;;;;;;;21.48;40.90;95828.38;10381396;28;1934;-45
2022/05/01 15:38:29;;;;;;;;;;;;;;;21.44;41.56;95825.53;10416368;28;1795;-44
2022/05/01 15:43:31;;;;;;;;;;;;;;;21.44;41.12;95820.25;10401415;28;1995;-46
2022/05/01 15:53:36;;;;;;;;;;;;;;;21.44;41.07;95816.81;10418313;28;1787;-44
2022/05/01 15:53:52;;;;;;;;;;;;;;;21.43;40.88;95808.09;10414396;28;1794;-46
2022/05/01 15:58:52;;;;;;;;;;;;;;;21.40;41.29;95810.53;10394194;28;1794;-45
2022/05/01 16:03:54;;;;;;;;;;;;;;;21.39;40.82;95811.59;10365649;28;1922;-43
2022/05/01 16:08:55;;;;;;;;;;;;;;;21.38;40.72;95802.91;10372068;28;1833;-46
2022/05/01 16:13:56;;;;;;;;;;;;;;;21.39;40.69;95809.72;10397682;28;1843;-45
2022/05/01 16:19:05;;;;;;;;;;;;;;;21.39;40.81;95801.81;10397771;28;1760;-44
2022/05/01 16:24:09;;;;;;;;;;;;;;;21.37;40.53;95798.66;10374753;28;1913;-43
2022/05/01 16:29:20;;;;;;;;;;;;;;;21.37;40.44;95801.31;10384737;28;1865;-45
2022/05/01 16:34:28;;;;;;;;;;;;;;;21.37;40.39;95797.91;10400707;28;1835;-47
2022/05/01 16:39:29;;;;;;;;;;;;;;;21.39;40.25;95793.13;10381462;28;1857;-44
2022/05/01 16:44:30;;;;;;;;;;;;;;;21.35;40.46;95797.41;10376918;28;1988;-46
2022/05/01 16:49:31;;;;;;;;;;;;;;;21.35;40.39;95792.13;10385406;28;1767;-47
2022/05/01 16:54:34;;;;;;;;;;;;;;;21.35;40.75;95795.53;10415627;28;1802;-46
2022/05/01 16:59:35;;;;;;;;;;;;;;;21.35;40.16;95803.44;10396223;28;1838;-44
2022/05/01 17:04:36;;;;;;;;;;;;;;;21.34;40.51;95801.09;10408170;28;1910;-47
2022/05/01 17:10:04;;;;;;;;;;;;;;;21.29;40.24;95801.13;10394140;28;1954;-51
2022/05/01 17:15:05;;;;;;;;;;;;;;;21.28;40.35;95804.81;10382998;28;1852;-45
2022/05/01 17:20:10;;;;;;;;;;;;;;;21.32;40.47;95803.22;10406482;28;1850;-46
2022/05/01 17:25:11;;;;;;;;;;;;;;;21.29;40.19;95809.81;10407237;28;1895;-47
2022/05/01 17:30:12;;;;;;;;;;;;;;;21.30;40.35;95805.34;10410145;28;2000;-48
2022/05/01 17:35:14;;;;;;;;;;;;;;;21.33;40.18;95813.47;10398865;28;1819;-47
2022/05/01 17:40:15;;;;;;;;;;;;;;;21.33;40.20;95815.34;10380938;28;1836;-44
2022/05/01 17:45:18;;;;;;;;;;;;;;;21.35;40.26;95813.22;10404794;28;1919;-47
2022/05/01 17:50:22;;;;;;;;;;;;;;;21.33;40.05;95815.34;10394638;28;1822;-50
2022/05/01 17:55:24;;;;;;;;;;;;;;;21.36;39.77;95812.13;10409252;28;1798;-43
2022/05/01 18:00:24;;;;;;;;;;;;;;;21.33;40.14;95813.47;10398798;28;1764;-46
2022/05/01 18:11:06;;;;;;;;;;;;;;;21.37;39.94;95824.28;10401896;28;1806;-45
2022/05/01 18:16:12;;;;;;;;;;;;;;;21.38;40.14;95821.34;10399212;28;1834;-48
2022/05/01 18:21:17;;;;;;;;;;;;;;;21.42;39.88;95819.72;10399344;28;1790;-47
2022/05/01 18:26:21;;;;;;;;;;;;;;;21.44;40.07;95822.88;10380916;28;1979;-47
2022/05/01 18:31:24;;;;;;;;;;;;;;;21.43;40.07;95823.16;10390045;28;1749;-46
2022/05/01 18:36:26;;;;;;;;;;;;;;;21.45;40.18;95824.44;10375095;28;1735;-47
2022/05/01 18:41:29;;;;;;;;;;;;;;;21.46;40.18;95833.16;10397280;28;1800;-45
2022/05/01 18:46:30;;;;;;;;;;;;;;;21.46;40.15;95830.50;10394791;28;1973;-45
2022/05/01 18:51:30;;;;;;;;;;;;;;;21.47;40.07;95840.00;10391526;28;1842;-42
2022/05/01 18:56:31;;;;;;;;;;;;;;;21.45;40.30;95839.50;10401906;28;1929;-44
2022/05/01 19:01:32;;;;;;;;;;;;;;;21.47;40.32;95840.00;10378009;28;1819;-46
2022/05/01 19:06:41;;;;;;;;;;;;;;;21.47;40.16;95846.06;10394627;28;1914;-44
2022/05/01 19:11:45;;;;;;;;;;;;;;;21.45;40.05;95847.41;10388995;28;1995;-46
2022/05/01 19:16:49;;;;;;;;;;;;;;;21.46;40.06;95843.69;10385955;28;1866;-48
2022/05/01 19:22:08;;;;;;;;;;;;;;;21.44;39.63;95843.97;10406509;28;2279;-43
2022/05/01 19:27:27;;;;;;;;;;;;;;;21.40;40.02;95844.81;10387197;28;1910;-45
2022/05/01 19:32:43;;;;;;;;;;;;;;;21.38;39.60;95847.72;10396899;28;1782;-42
2022/05/01 19:37:46;;;;;;;;;;;;;;;21.36;39.75;95846.41;10394348;28;1845;-42
2022/05/01 19:42:49;;;;;;;;;;;;;;;21.36;39.56;95846.41;10379598;28;1787;-43
2022/05/01 19:53:15;;;;;;;;;;;;;;;21.40;39.23;95855.34;10414245;28;1887;-43
2022/05/01 19:58:18;;;;;;;;;;;;;;;21.42;39.27;95853.22;10400346;28;1976;-43
2022/05/01 20:03:19;;;;;;;;;;;;;;;21.35;38.21;95850.13;10414099;28;1772;-43
2022/05/01 20:08:20;;;;;;;;;;;;;;;20.85;37.97;95852.03;10385867;28;1977;-42
2022/05/01 20:13:21;;;;;;;;;;;;;;;20.48;38.30;95840.34;10397600;28;1756;-47
2022/05/01 20:18:24;;;;;;;;;;;;;;;20.21;38.73;95846.00;10409877;28;1794;-50
2022/05/01 20:23:45;;;;;;;;;;;;;;;20.08;38.84;95847.31;10398357;28;1889;-50
2022/05/01 20:28:46;;;;;;;;;;;;;;;20.08;39.06;95839.41;10399388;28;1909;-46
2022/05/01 20:34:05;;;;;;;;;;;;;;;20.40;38.20;95839.09;10398244;28;1788;-44
2022/05/01 20:39:07;;;;;;;;;;;;;;;20.60;37.45;95838.97;10389541;28;1852;-43
2022/05/01 20:44:13;;;;;;;;;;;;;;;20.72;36.76;95844.72;10399631;28;1969;-43
2022/05/01 20:49:24;;;;;;;;;;;;;;;20.82;36.70;95846.50;10395119;28;1761;-42
2022/05/01 20:54:33;;;;;;;;;;;;;;;20.87;36.35;95844.63;10373403;28;1775;-44
2022/05/01 20:59:34;;;;;;;;;;;;;;;20.94;36.46;95837.19;10366042;28;1874;-44
2022/05/01 21:04:35;;;;;;;;;;;;;;;21.03;37.15;95829.53;10360074;28;1922;-42
2022/05/01 21:09:36;;;;;;;;;;;;;;;21.06;36.80;95834.25;10389680;28;1808;-44
2022/05/01 21:14:36;;;;;;;;;;;;;;;21.11;36.64;95830.78;10369558;28;1861;-44
2022/05/01 21:19:36;;;;;;;;;;;;;;;21.16;37.24;95826.28;10379615;28;1843;-43
2022/05/01 21:24:37;;;;;;;;;;;;;;;21.21;37.53;95831.50;10381233;28;1968;-43
2022/05/01 21:34:59;;;;;;;;;;;;;;;21.25;37.86;95824.63;10376319;28;2098;-45
2022/05/01 21:39:59;;;;;;;;;;;;;;;21.27;37.96;95817.22;10372203;28;1851;-43
2022/05/01 21:45:00;;;;;;;;;;;;;;;21.26;37.95;95814.84;10394631;28;1977;-43
2022/05/01 21:50:00;;;;;;;;;;;;;;;21.23;38.13;95821.47;10390031;28;1850;-42
2022/05/01 21:55:01;;;;;;;;;;;;;;;21.22;37.98;95813.84;10391834;28;1818;-44
2022/05/01 22:00:04;;;;;;;;;;;;;;;21.24;37.98;95817.78;10394911;28;1838;-41
2022/05/01 22:05:05;;;;;;;;;;;;;;;21.23;38.24;95805.66;10363657;28;1972;-43
2022/05/01 22:10:05;;;;;;;;;;;;;;;21.23;37.95;95808.28;10373461;28;1887;-42
2022/05/01 22:15:06;;;;;;;;;;;;;;;21.25;38.33;95808.00;10360504;28;1740;-44
2022/05/01 22:20:07;;;;;;;;;;;;;;;21.24;37.99;95809.06;10395457;28;1784;-45
2022/05/01 22:25:08;;;;;;;;;;;;;;;21.24;38.17;95807.22;10379039;28;1907;-44
2022/05/01 22:30:09;;;;;;;;;;;;;;;21.24;38.23;95806.44;10377554;28;1839;-45
2022/05/01 22:40:31;;;;;;;;;;;;;;;21.25;38.01;95803.53;10380913;28;1876;-45
2022/05/01 22:45:33;;;;;;;;;;;;;;;21.26;37.81;95788.50;10406146;28;1910;-44
2022/05/01 22:50:35;;;;;;;;;;;;;;;21.28;37.95;95783.72;10376643;28;2106;-45
2022/05/01 22:55:35;;;;;;;;;;;;;;;21.26;38.00;95786.66;10403816;28;1839;-45
2022/05/01 23:00:36;;;;;;;;;;;;;;;21.29;38.21;95778.19;10385935;28;1811;-45
2022/05/01 23:05:36;;;;;;;;;;;;;;;21.27;38.14;95772.41;10387118;28;1906;-46
2022/05/01 23:10:37;;;;;;;;;;;;;;;21.26;38.30;95777.94;10385577;28;1775;-42
2022/05/01 23:15:38;;;;;;;;;;;;;;;21.25;38.62;95779.00;10389408;28;1743;-44
2022/05/01 23:20:54;;;;;;;;;;;;;;;21.26;38.25;95772.69;10382112;28;1814;-47
2022/05/01 23:25:55;;;;;;;;;;;;;;;21.28;38.06;95765.28;10394985;28;1975;-45
2022/05/01 23:30:55;;;;;;;;;;;;;;;21.28;37.87;95760.00;10402019;28;1664;-43
2022/05/01 23:35:56;;;;;;;;;;;;;;;21.29;37.99;95766.88;10374338;28;1834;-43
2022/05/01 23:40:56;;;;;;;;;;;;;;;21.31;38.19;95767.38;10384543;28;1825;-43
2022/05/01 23:45:57;;;;;;;;;;;;;;;21.29;37.87;95764.22;10389959;28;1906;-45
2022/05/01 23:50:57;;;;;;;;;;;;;;;21.28;38.04;95760.78;10377409;28;1821;-44
2022/05/01 23:55:59;;;;;;;;;;;;;;;21.30;37.69;95756.03;10383020;28;1723;-44
